createdAt,value
2023-05-18T00:03:23.495Z,82.90
2023-05-18T00:08:27.899Z,83.00
2023-05-18T00:13:33.670Z,82.90
2023-05-18T00:18:36.951Z,82.90
2023-05-18T00:23:43.739Z,82.80
2023-05-18T00:28:46.896Z,82.80
2023-05-18T00:33:50.477Z,83.10
2023-05-18T00:38:54.016Z,83.10
2023-05-18T00:43:59.486Z,83.00
2023-05-18T00:49:05.918Z,83.40
2023-05-18T00:54:11.168Z,83.30
2023-05-18T00:59:16.667Z,83.40
2023-05-18T01:04:22.148Z,83.30
2023-05-18T01:09:27.382Z,83.20
2023-05-18T01:14:47.972Z,83.30
2023-05-18T01:20:20.652Z,83.30
2023-05-18T01:26:07.430Z,83.40
2023-05-18T01:31:11.535Z,83.30
2023-05-18T01:36:14.699Z,83.40
2023-05-18T01:41:27.629Z,83.30
2023-05-18T01:47:21.261Z,83.50
2023-05-18T01:52:37.128Z,83.60
2023-05-18T01:57:45.137Z,83.40
2023-05-18T02:02:52.001Z,83.40
2023-05-18T02:07:57.851Z,83.40
2023-05-18T02:13:01.072Z,83.40
2023-05-18T02:18:05.329Z,83.20
2023-05-18T02:23:09.117Z,83.30
2023-05-18T02:28:13.428Z,83.30
2023-05-18T02:33:26.908Z,83.30
2023-05-18T02:38:32.871Z,83.20
2023-05-18T02:43:36.777Z,83.10
2023-05-18T02:48:40.429Z,83.20
2023-05-18T02:53:45.784Z,83.10
2023-05-18T02:58:58.281Z,83.20
2023-05-18T03:04:12.365Z,83.30
2023-05-18T03:09:21.810Z,83.20
2023-05-18T03:14:28.017Z,83.10
2023-05-18T03:19:35.216Z,83.20
2023-05-18T03:24:40.292Z,83.20
2023-05-18T03:29:46.012Z,83.20
2023-05-18T03:34:49.127Z,83.10
2023-05-18T03:39:51.844Z,83.20
2023-05-18T03:44:55.648Z,83.40
2023-05-18T03:49:58.104Z,83.30
2023-05-18T03:55:01.731Z,83.20
2023-05-18T04:00:09.320Z,83.30
2023-05-18T04:05:19.716Z,83.40
2023-05-18T04:10:22.599Z,83.50
2023-05-18T04:15:24.910Z,83.40
2023-05-18T04:20:28.404Z,83.40
2023-05-18T04:25:31.055Z,83.60
2023-05-18T04:30:33.395Z,83.80
2023-05-18T04:35:36.212Z,83.70
2023-05-18T04:40:42.907Z,83.70
2023-05-18T04:45:50.585Z,83.80
2023-05-18T04:50:56.303Z,83.80
2023-05-18T04:55:58.632Z,84.00
2023-05-18T05:01:00.830Z,83.90
2023-05-18T05:06:03.324Z,84.20
2023-05-18T05:11:05.728Z,84.40
2023-05-18T05:16:07.821Z,84.30
2023-05-18T05:21:10.169Z,84.30
2023-05-18T05:26:12.347Z,85.20
2023-05-18T05:31:14.667Z,84.60
2023-05-18T05:36:16.864Z,84.60
2023-05-18T05:41:20.419Z,84.80
2023-05-18T05:46:22.606Z,84.90
2023-05-18T05:51:25.190Z,85.00
2023-05-18T05:56:27.412Z,85.00
2023-05-18T06:01:29.585Z,85.20
2023-05-18T06:06:32.511Z,85.10
2023-05-18T06:11:35.049Z,85.20
2023-05-18T06:16:37.600Z,85.30
2023-05-18T06:21:39.941Z,85.50
2023-05-18T06:26:43.261Z,85.60
2023-05-18T06:32:13.503Z,85.80
2023-05-18T06:37:19.296Z,85.90
2023-05-18T06:42:21.380Z,86.00
2023-05-18T06:47:35.206Z,86.10
2023-05-18T06:52:37.379Z,86.30
2023-05-18T06:57:39.548Z,86.30
2023-05-18T07:02:43.406Z,86.40
2023-05-18T07:07:45.808Z,86.60
2023-05-18T07:12:48.002Z,86.70
2023-05-18T07:17:50.171Z,86.70
2023-05-18T07:22:52.445Z,87.00
2023-05-18T07:27:55.045Z,87.20
2023-05-18T07:32:57.347Z,87.10
2023-05-18T07:38:02.578Z,88.00
2023-05-18T07:43:04.774Z,87.40
2023-05-18T07:48:13.865Z,87.50
2023-05-18T07:53:16.343Z,87.70
2023-05-18T07:58:18.469Z,87.90
2023-05-18T08:03:21.294Z,88.00
2023-05-18T08:08:24.469Z,88.30
2023-05-18T08:13:26.816Z,88.40
2023-05-18T08:18:31.520Z,88.70
2023-05-18T08:23:34.021Z,89.30
2023-05-18T08:28:36.100Z,88.90
2023-05-18T08:33:38.473Z,89.00
2023-05-18T08:38:40.810Z,89.20
2023-05-18T08:43:47.147Z,89.10
2023-05-18T08:48:56.324Z,89.40
2023-05-18T08:53:59.328Z,89.50
2023-05-18T08:59:07.921Z,89.50
2023-05-18T09:04:10.966Z,89.90
2023-05-18T09:09:15.242Z,89.80
2023-05-18T09:14:17.342Z,90.00
2023-05-18T09:19:19.971Z,90.30
2023-05-18T09:24:24.569Z,90.00
2023-05-18T09:29:26.770Z,90.00
2023-05-18T09:34:39.899Z,90.00
2023-05-18T09:39:42.511Z,90.00
2023-05-18T09:44:46.198Z,90.00
2023-05-18T09:49:48.825Z,90.10
2023-05-18T09:55:00.254Z,90.30
2023-05-18T10:00:10.444Z,90.30
2023-05-18T10:05:23.386Z,90.20
2023-05-18T10:10:27.172Z,90.10
2023-05-18T10:15:29.102Z,90.10
2023-05-18T10:20:32.517Z,90.00
2023-05-18T10:25:36.093Z,90.00
2023-05-18T10:30:43.880Z,90.00
2023-05-18T10:35:49.376Z,89.90
2023-05-18T10:40:53.382Z,89.90
2023-05-18T10:45:57.147Z,90.00
2023-05-18T10:50:59.228Z,89.90
2023-05-18T10:56:01.809Z,89.80
2023-05-18T11:01:09.359Z,89.60
2023-05-18T11:06:13.117Z,89.50
2023-05-18T11:11:19.485Z,89.60
2023-05-18T11:16:32.329Z,89.30
2023-05-18T11:21:37.262Z,89.30
2023-05-18T11:26:40.760Z,89.50
2023-05-18T11:31:47.472Z,89.40
2023-05-18T11:36:56.537Z,89.30
2023-05-18T11:42:09.078Z,89.10
2023-05-18T11:47:11.517Z,89.10
2023-05-18T11:52:20.612Z,89.10
2023-05-18T11:57:25.337Z,89.00
2023-05-18T12:02:34.786Z,88.90
2023-05-18T12:07:38.904Z,88.60
2023-05-18T12:12:41.970Z,88.60
2023-05-18T12:17:46.273Z,88.60
2023-05-18T12:22:53.715Z,88.60
2023-05-18T12:27:57.057Z,89.20
2023-05-18T12:33:01.275Z,88.60
2023-05-18T12:38:03.354Z,88.40
2023-05-18T12:43:05.358Z,88.50
2023-05-18T12:48:09.133Z,88.50
2023-05-18T12:53:11.140Z,88.50
2023-05-18T12:58:16.911Z,88.40
2023-05-18T13:03:22.061Z,88.40
2023-05-18T13:08:24.560Z,88.40
2023-05-18T13:13:26.532Z,88.40
2023-05-18T13:18:28.668Z,88.40
2023-05-18T13:23:31.090Z,88.40
2023-05-18T13:28:32.970Z,88.50
2023-05-18T13:33:34.914Z,88.50
2023-05-18T13:38:37.477Z,88.40
2023-05-18T13:43:39.463Z,88.40
2023-05-18T13:48:41.642Z,88.30
2023-05-18T13:53:44.190Z,88.40
2023-05-18T13:58:46.117Z,88.60
2023-05-18T14:03:48.120Z,88.70
2023-05-18T14:08:50.029Z,88.70
2023-05-18T14:13:51.890Z,88.60
2023-05-18T14:18:53.756Z,88.50
2023-05-18T14:23:55.862Z,88.60
2023-05-18T14:28:57.725Z,88.70
2023-05-18T14:33:59.596Z,88.60
2023-05-18T14:39:01.530Z,88.60
2023-05-18T14:44:08.705Z,88.30
2023-05-18T14:49:10.601Z,88.30
2023-05-18T14:54:14.076Z,88.20
2023-05-18T14:59:15.984Z,88.90
2023-05-18T15:04:17.950Z,88.10
2023-05-18T15:09:23.586Z,88.10
2023-05-18T15:14:26.595Z,88.00
2023-05-18T15:19:28.648Z,87.90
2023-05-18T15:24:30.852Z,87.90
2023-05-18T15:29:32.809Z,87.80
2023-05-18T15:34:35.311Z,87.80
2023-05-18T15:39:40.534Z,87.60
2023-05-18T15:44:42.600Z,87.60
2023-05-18T15:49:44.669Z,87.60
2023-05-18T15:54:46.712Z,87.50
2023-05-18T15:59:49.147Z,87.50
2023-05-18T16:04:51.226Z,87.40
2023-05-18T16:09:53.183Z,87.30
2023-05-18T16:14:55.199Z,87.30
2023-05-18T16:19:57.150Z,87.20
2023-05-18T16:24:59.216Z,87.30
2023-05-18T16:30:01.328Z,87.30
2023-05-18T16:35:05.024Z,87.30
2023-05-18T16:40:08.246Z,87.20
2023-05-18T16:45:10.851Z,87.10
2023-05-18T16:50:12.883Z,87.10
2023-05-18T16:55:16.009Z,87.00
2023-05-18T17:00:18.708Z,86.90
2023-05-18T17:05:22.862Z,87.00
2023-05-18T17:10:25.068Z,86.90
2023-05-18T17:15:27.243Z,86.80
2023-05-18T17:20:29.384Z,86.80
2023-05-18T17:25:31.487Z,86.70
2023-05-18T17:30:33.694Z,86.70
2023-05-18T17:35:36.034Z,86.70
2023-05-18T17:40:38.064Z,86.60
2023-05-18T17:45:40.495Z,86.50
2023-05-18T17:50:42.597Z,86.70
2023-05-18T17:55:44.798Z,86.60
2023-05-18T18:00:46.893Z,86.50
2023-05-18T18:05:49.005Z,86.50
2023-05-18T18:10:52.759Z,86.40
2023-05-18T18:15:54.986Z,86.30
2023-05-18T18:20:57.365Z,86.30
2023-05-18T18:26:00.263Z,86.30
2023-05-18T18:31:03.635Z,86.30
2023-05-18T18:36:07.467Z,86.20
2023-05-18T18:41:09.890Z,86.30
2023-05-18T18:46:12.374Z,86.30
2023-05-18T18:51:14.729Z,86.20
2023-05-18T18:56:16.776Z,86.20
2023-05-18T19:01:18.943Z,86.30
2023-05-18T19:06:23.102Z,86.20
2023-05-18T19:11:25.243Z,86.20
2023-05-18T19:16:27.299Z,86.30
2023-05-18T19:21:29.362Z,86.20
2023-05-18T19:26:32.608Z,86.30
2023-05-18T19:31:35.969Z,86.30
2023-05-18T19:36:37.999Z,86.30
2023-05-18T19:41:39.967Z,86.20
2023-05-18T19:46:42.205Z,86.20
2023-05-18T19:51:44.298Z,86.20
2023-05-18T19:56:46.387Z,86.10
2023-05-18T20:01:49.159Z,86.20
2023-05-18T20:06:51.995Z,86.20
2023-05-18T20:11:56.149Z,86.30
2023-05-18T20:16:59.431Z,86.30
2023-05-18T20:22:01.476Z,86.20
2023-05-18T20:27:03.632Z,86.00
2023-05-18T20:32:06.192Z,86.10
2023-05-18T20:37:10.954Z,86.10
2023-05-18T20:42:14.848Z,86.10
2023-05-18T20:47:20.610Z,86.10
2023-05-18T20:52:22.965Z,86.00
2023-05-18T20:57:25.219Z,86.80
2023-05-18T21:02:27.380Z,86.00
2023-05-18T21:07:29.558Z,86.00
2023-05-18T21:12:32.093Z,86.00
2023-05-18T21:17:34.256Z,86.10
2023-05-18T21:22:36.495Z,86.10
2023-05-18T21:27:38.555Z,86.10
2023-05-18T21:43:56.391Z,86.30
2023-05-18T21:48:58.794Z,86.10
2023-05-18T21:54:02.227Z,85.90
2023-05-18T22:43:22.643Z,86.20
2023-05-18T22:48:36.272Z,86.00
2023-05-18T22:53:38.338Z,86.30
2023-05-18T22:58:40.481Z,86.20
2023-05-18T23:03:42.531Z,86.20
2023-05-18T23:08:44.647Z,86.20
2023-05-18T23:13:46.787Z,86.20
2023-05-18T23:18:50.585Z,86.10
2023-05-18T23:23:54.629Z,86.30
2023-05-18T23:28:56.812Z,86.10
2023-05-18T23:33:59.159Z,86.20
2023-05-18T23:39:01.543Z,86.10
2023-05-18T23:44:04.189Z,86.30
2023-05-18T23:49:06.474Z,86.20
2023-05-18T23:54:09.476Z,86.40
2023-05-18T23:59:14.682Z,86.30
